Accueil
METAR-TAF:

METAR-TAF

Aéroports :

Newport, Vermont, États-Unis

latitude: 44-53-20N, longitude: 072-13-45W, altitude: 283 m

Observation

Le bulletin a été fait il y a 19 minutes, à 19:35 UTC
Vent 16 kt de nord/nord-ouest avec des rafales jusqu'à 24 kt
Température -1°C
Humidité 100%
Pression 991 hPa
Visibilité: 0.8 km
Ciel couvert à une hauteur de 400 ft
neige faible

METAR: KEFK 101935Z AUTO 34016G24KT 1/2SM -SN OVC004 M01/M01 A2925 RMK AO2 T10081010

Heure: 15:54 (19:54 UTC)


TAF: absent

Observations et prévisions météorologiques de plus de 4000 aéroports (messages METAR et TAF).

Les stations disponibles sont représentées par des disques jaunes et rouges sur la carte.

Passer la souris dessus pour voir le nom de la station.

Cliquer dessus pour voir les observations et prévisions météorologiques.

Pour changer de carte: cliquez sur les boutons verts avec une croix noire pour zoomer, sur le bouton vert avec un tiret pour effectuer un zoom arrière, ou sur les flèches vertes pour les cartes adjacentes.


METAR-TAF: